CYQL

Lethbridge County Airport

Lethbridge, Alberta, Canada
TAF CYQL 210541Z 2106/2118 22010G20KT P6SM BKN180 FM211300 22015G25KT P6SM BKN120 BECMG 2116/2118 22022G35KT RMK FCST BASED ON AUTO OBS. NXT FCST BY 211200Z
Issued Valid From Valid To
Apr-21 @ 05:41 UTC
(4 hours ago)
Apr-21 @ 06:00 UTC
(4 hours ago)
Apr-21 @ 18:00 UTC
(in 8 hours)
Apr-21 @ 06:00 to Apr-21 @ 13:00
TAF CYQL 210541Z 2106/2118 22010G20KT P6SM BKN180
Wind Visibility Clouds
220° at 10 knots
 Gusting to 20 knots
Greater than 6 miles
  • Broken at 18,000' AGL
From Apr-21 @ 13:00 to Apr-21 @ 16:00
FM211300 22015G25KT P6SM BKN120
Wind Visibility Clouds
220° at 15 knots
 Gusting to 25 knots
Greater than 6 miles
  • Broken at 12,000' AGL
Becoming Apr-21 @ 16:00 to Apr-21 @ 18:00
BECMG 2116/2118 22022G35KT RMK FCST BASED ON AUTO OBS. NXT FCST BY 211200Z
Wind Visibility Clouds
220° at 22 knots
 Gusting to 35 knots
Greater than 6 miles
  • Broken at 12,000' AGL
TAF CYQL 210541Z 2106/2118 22010G20KT P6SM BKN180 FM211300 22015G25KT P6SM BKN120 BECMG 2116/2118 22022G35KT RMK FCST BASED ON AUTO OBS. NXT FCST BY 211200Z
Issued Apr-21 @ 05:41 UTC
(4 hours ago)
Valid From Apr-21 @ 06:00 UTC
(4 hours ago)
Valid To Apr-21 @ 18:00 UTC
(in 8 hours)
Apr-21 @ 06:00 - Apr-21 @ 13:00
Wind Visibility
220° at 10 knots
 Gusting to 20 knots
Greater than 6 miles
Clouds
  • Broken at 18,000' AGL
From Apr-21 @ 13:00 - Apr-21 @ 16:00
Wind Visibility
220° at 15 knots
 Gusting to 25 knots
Greater than 6 miles
Clouds
  • Broken at 12,000' AGL
Becoming Apr-21 @ 16:00 - Apr-21 @ 18:00
Wind Visibility
220° at 22 knots
 Gusting to 35 knots
Greater than 6 miles
Clouds
  • Broken at 12,000' AGL